South Branch, New Jersey
Current Conditions -  °F | °C
As of 9:53 PM on Monday 20 Oct 2014 (Local Time) from KSMQ Reporting Station
Clear Clear  
Wind Chill: 45°   Ceiling: Unl
Heat Index: 45°   Visibility: 10mi
Dew Point: 40°   Wind: 0mph
Humidity: 82%   Direction: NA
Pressure: 29.96"   Gusts: NA
Location:  40.5554°N, 74.6608°W
Report Text: KSMQ 210153Z AUTO 00000KT 10SM CLR 07/04 A2996 RMK AO2 SLP147 T00720044
Loading
Personal Weather Stations






























Interactive Weather Map
Tropical Storm Tracking
New forecast layout! Learn more

10-Day Weather Forecast

Advertisements
Track Severe Weather on mobile